Time;durP1;ratioP1;P1;durP2;ratioP2;P2;SDS_P1;SDS_P2;PMS_P1;PMS_P2;Temp;Humidity;BMP_temperature;BMP_pressure;BME280_temperature;BME280_humidity;BME280_pressure;Samples;Min_cycle;Max_cycle;Signal;HPM_P1;HPM_P2
2023/03/03 00:00:10;;;;;;;37.65;20.25;;;5.50;60.80;;;;;;5079686;28;20024;-64
2023/03/03 00:02:36;;;;;;;39.80;19.92;;;5.60;60.90;;;;;;5079403;28;20032;-63
2023/03/03 00:05:02;;;;;;;39.25;19.65;;;5.60;60.70;;;;;;5068326;28;20135;-63
2023/03/03 00:07:28;;;;;;;34.70;19.92;;;5.60;60.60;;;;;;5073522;28;20089;-62
2023/03/03 00:09:53;;;;;;;39.13;20.23;;;5.60;60.60;;;;;;5081795;28;20020;-63
2023/03/03 00:12:26;;;;;;;42.05;20.33;;;5.60;60.70;;;;;;5084223;28;20035;-63
2023/03/03 00:14:52;;;;;;;35.28;20.15;;;5.60;61.20;;;;;;5070719;28;20050;-64
2023/03/03 00:17:29;;;;;;;33.03;18.88;;;5.60;60.90;;;;;;5078658;28;20116;-63
2023/03/03 00:19:55;;;;;;;37.90;20.23;;;5.70;61.60;;;;;;5077104;28;20025;-63
2023/03/03 00:22:21;;;;;;;37.22;20.52;;;5.70;61.00;;;;;;5077519;28;20403;-63
2023/03/03 00:24:48;;;;;;;36.60;21.10;;;5.70;61.00;;;;;;5085716;28;20043;-64
2023/03/03 00:27:27;;;;;;;48.15;21.50;;;5.80;61.20;;;;;;5086032;28;20028;-64
2023/03/03 00:29:58;;;;;;;40.22;20.48;;;5.80;61.50;;;;;;5078542;28;20020;-63
2023/03/03 00:32:38;;;;;;;37.22;20.73;;;5.80;61.00;;;;;;5084219;28;20031;-64
2023/03/03 00:35:28;;;;;;;42.22;21.25;;;5.90;61.10;;;;;;5071129;28;20028;-64
2023/03/03 00:37:57;;;;;;;43.28;22.17;;;5.90;61.70;;;;;;5086881;28;20044;-63
2023/03/03 00:40:30;;;;;;;41.35;21.55;;;6.00;60.90;;;;;;5083948;28;20025;-64
2023/03/03 00:42:58;;;;;;;42.30;21.83;;;6.00;60.90;;;;;;5084099;28;20024;-63
2023/03/03 00:45:42;;;;;;;42.72;21.75;;;6.00;60.90;;;;;;5082817;28;20080;-63
2023/03/03 00:48:27;;;;;;;37.28;20.05;;;6.00;61.30;;;;;;5076576;28;20033;-64
2023/03/03 00:50:58;;;;;;;41.90;20.90;;;6.10;61.30;;;;;;5080862;28;20021;-63
2023/03/03 00:53:26;;;;;;;36.45;20.00;;;6.10;60.70;;;;;;5080931;28;20046;-63
2023/03/03 00:55:53;;;;;;;40.60;21.02;;;6.10;60.70;;;;;;5079531;28;20063;-63
2023/03/03 00:58:20;;;;;;;42.30;20.75;;;6.10;60.70;;;;;;5084991;28;20026;-63
2023/03/03 01:00:48;;;;;;;37.42;20.30;;;6.20;60.80;;;;;;5078096;28;20055;-63
2023/03/03 01:03:20;;;;;;;40.40;20.70;;;6.20;61.60;;;;;;5077807;28;20024;-64
2023/03/03 01:05:46;;;;;;;39.25;19.38;;;6.20;61.10;;;;;;5082019;28;20090;-63
2023/03/03 01:08:12;;;;;;;40.50;21.67;;;6.20;60.80;;;;;;5081095;28;20036;-63
2023/03/03 01:10:52;;;;;;;43.05;20.13;;;6.30;61.00;;;;;;5079613;28;20546;-64
2023/03/03 01:13:20;;;;;;;40.58;20.63;;;6.30;62.20;;;;;;5084795;28;20044;-63
2023/03/03 01:15:45;;;;;;;42.53;21.73;;;6.30;60.90;;;;;;5083233;28;20025;-63
2023/03/03 01:18:12;;;;;;;45.05;22.55;;;6.30;60.80;;;;;;5081561;28;20123;-63
2023/03/03 01:20:38;;;;;;;41.72;22.67;;;6.30;60.80;;;;;;5090469;28;20020;-62
2023/03/03 01:23:04;;;;;;;44.65;22.30;;;6.40;60.90;;;;;;5084658;28;20032;-64
2023/03/03 01:25:30;;;;;;;42.22;22.48;;;6.40;60.90;;;;;;5081515;28;20055;-64
2023/03/03 01:27:57;;;;;;;41.75;22.10;;;6.40;60.80;;;;;;5087574;28;20147;-63
2023/03/03 01:30:23;;;;;;;43.47;22.33;;;6.40;60.90;;;;;;5080459;28;20122;-63
2023/03/03 01:32:49;;;;;;;41.78;22.55;;;6.40;60.80;;;;;;5077350;28;20021;-62
2023/03/03 01:35:14;;;;;;;43.40;22.75;;;6.40;60.90;;;;;;5080494;28;20830;-64
2023/03/03 01:37:40;;;;;;;47.08;23.35;;;6.40;60.90;;;;;;5086371;28;20049;-63
2023/03/03 01:40:13;;;;;;;46.83;22.92;;;6.40;60.80;;;;;;5079794;28;20055;-63
2023/03/03 01:42:38;;;;;;;43.67;22.33;;;6.40;60.80;;;;;;5073626;28;20040;-63
2023/03/03 01:45:28;;;;;;;38.55;22.02;;;6.40;60.80;;;;;;5082978;28;20028;-63
2023/03/03 01:48:02;;;;;;;40.55;22.58;;;6.40;61.40;;;;;;5076271;28;20099;-64
2023/03/03 01:50:33;;;;;;;;;;;6.40;60.60;;;;;;5070793;28;20496;-64
2023/03/03 01:53:02;;;;;;;41.10;20.67;;;6.50;61.30;;;;;;5078204;28;19908;-63
2023/03/03 01:55:33;;;;;;;43.97;21.50;;;6.50;60.30;;;;;;5077056;28;20027;-63
2023/03/03 01:58:04;;;;;;;44.17;22.30;;;6.50;60.50;;;;;;5076911;28;20058;-63
2023/03/03 02:00:31;;;;;;;46.03;22.75;;;6.40;60.70;;;;;;5076244;28;20021;-64
2023/03/03 02:02:57;;;;;;;45.33;21.67;;;6.40;60.70;;;;;;5071608;28;20037;-63
2023/03/03 02:05:24;;;;;;;39.00;22.40;;;6.50;60.80;;;;;;5078422;28;20047;-64
2023/03/03 02:07:50;;;;;;;42.53;22.65;;;6.50;60.80;;;;;;5079564;28;20058;-63
2023/03/03 02:10:18;;;;;;;45.25;21.85;;;6.50;60.80;;;;;;5086073;28;20570;-64
2023/03/03 02:12:52;;;;;;;40.00;21.98;;;6.50;60.80;;;;;;5079828;28;20441;-64
2023/03/03 02:15:27;;;;;;;43.45;22.90;;;6.50;61.10;;;;;;5080948;28;20027;-63
2023/03/03 02:17:56;;;;;;;40.75;21.83;;;6.50;60.80;;;;;;5080131;28;20028;-63
2023/03/03 02:20:31;;;;;;;38.92;22.55;;;6.50;60.80;;;;;;5079588;28;20142;-64
2023/03/03 02:23:22;;;;;;;43.95;21.48;;;6.50;61.20;;;;;;5082510;28;20532;-63
2023/03/03 02:25:53;;;;;;;39.78;21.27;;;6.50;61.20;;;;;;5067728;28;20097;-63
2023/03/03 02:28:20;;;;;;;38.95;20.90;;;6.50;60.80;;;;;;5074003;28;20044;-63
2023/03/03 02:30:45;;;;;;;40.85;21.40;;;6.50;60.90;;;;;;5078313;28;20024;-63
2023/03/03 02:33:11;;;;;;;40.88;21.08;;;6.50;60.90;;;;;;5082215;28;20039;-63
2023/03/03 02:35:39;;;;;;;38.50;20.70;;;6.50;61.00;;;;;;5080597;28;20081;-63
2023/03/03 02:38:13;;;;;;;44.33;21.33;;;6.50;61.10;;;;;;5083174;28;20068;-64
2023/03/03 02:41:03;;;;;;;38.55;20.48;;;6.50;61.10;;;;;;5080676;28;20040;-63
2023/03/03 02:43:38;;;;;;;41.08;20.38;;;6.60;61.30;;;;;;5074665;28;20032;-63
2023/03/03 02:46:03;;;;;;;;;;;6.60;61.20;;;;;;5083172;28;20557;-63
2023/03/03 02:48:29;;;;;;;31.67;17.80;;;6.60;61.60;;;;;;5087053;28;19979;-64
2023/03/03 02:50:55;;;;;;;34.60;19.98;;;6.60;60.50;;;;;;5078097;28;20088;-63
2023/03/03 02:53:20;;;;;;;41.58;20.73;;;6.60;60.70;;;;;;5075545;28;20046;-63
2023/03/03 02:55:46;;;;;;;39.28;21.27;;;6.50;60.90;;;;;;5082428;28;20032;-63
2023/03/03 02:58:11;;;;;;;40.83;20.60;;;6.50;61.00;;;;;;5074403;28;20055;-63
2023/03/03 03:00:37;;;;;;;38.55;21.00;;;6.50;61.10;;;;;;5077604;28;20056;-64
2023/03/03 03:03:03;;;;;;;41.63;21.80;;;6.50;61.20;;;;;;5070235;28;20024;-63
2023/03/03 03:05:28;;;;;;;39.08;20.80;;;6.50;61.40;;;;;;5082783;28;20036;-63
2023/03/03 03:07:54;;;;;;;36.55;19.92;;;6.50;61.30;;;;;;5078593;28;20047;-63
2023/03/03 03:10:20;;;;;;;39.30;21.27;;;6.50;61.30;;;;;;5073087;28;20033;-63
2023/03/03 03:12:45;;;;;;;42.50;21.85;;;6.50;61.40;;;;;;5075916;28;20032;-64
2023/03/03 03:15:11;;;;;;;41.55;20.00;;;6.50;61.50;;;;;;5078772;28;20036;-63
2023/03/03 03:17:38;;;;;;;39.85;20.30;;;6.50;61.50;;;;;;5071622;28;20039;-63
2023/03/03 03:20:04;;;;;;;44.25;19.98;;;6.50;61.50;;;;;;5076266;28;20025;-63
2023/03/03 03:22:30;;;;;;;38.65;20.38;;;6.50;61.50;;;;;;5079771;28;20032;-62
2023/03/03 03:24:55;;;;;;;42.85;20.98;;;6.40;61.40;;;;;;5075342;28;20025;-62
2023/03/03 03:27:22;;;;;;;47.40;21.95;;;6.50;61.50;;;;;;5078286;28;20112;-63
2023/03/03 03:29:47;;;;;;;42.95;22.08;;;6.50;61.40;;;;;;5075043;28;20029;-64
2023/03/03 03:32:13;;;;;;;40.72;22.20;;;6.40;61.40;;;;;;5074596;28;20047;-62
2023/03/03 03:34:39;;;;;;;41.15;22.27;;;6.50;61.50;;;;;;5082410;28;20087;-64
2023/03/03 03:37:05;;;;;;;44.20;21.10;;;6.50;61.40;;;;;;5074501;28;20037;-64
2023/03/03 03:39:31;;;;;;;36.25;20.08;;;6.50;61.40;;;;;;5076297;28;20043;-61
2023/03/03 03:41:56;;;;;;;40.70;21.55;;;6.50;61.40;;;;;;5069850;28;20430;-64
2023/03/03 03:44:24;;;;;;;40.67;21.73;;;6.50;61.30;;;;;;5069051;28;20115;-62
2023/03/03 03:46:49;;;;;;;42.70;21.35;;;6.50;61.40;;;;;;5064579;28;20020;-64
2023/03/03 03:49:15;;;;;;;42.97;22.92;;;6.50;61.40;;;;;;5070241;28;20036;-64
2023/03/03 03:51:41;;;;;;;47.33;22.40;;;6.50;61.40;;;;;;5076227;28;20635;-62
2023/03/03 03:54:07;;;;;;;40.20;20.75;;;6.50;61.40;;;;;;5081052;28;20048;-63
2023/03/03 03:56:32;;;;;;;41.55;22.35;;;6.50;61.30;;;;;;5074472;28;20496;-63
2023/03/03 03:58:59;;;;;;;45.75;22.38;;;6.50;61.30;;;;;;5069284;28;20027;-64
2023/03/03 04:01:25;;;;;;;46.42;22.30;;;6.50;61.40;;;;;;5085034;28;20035;-62
2023/03/03 04:03:51;;;;;;;42.63;22.05;;;6.50;61.50;;;;;;5080858;28;20020;-62
2023/03/03 04:06:17;;;;;;;39.53;22.23;;;6.50;61.50;;;;;;5078923;28;20032;-64
2023/03/03 04:08:43;;;;;;;45.95;22.40;;;6.60;61.60;;;;;;5083818;28;20084;-64
2023/03/03 04:11:08;;;;;;;41.38;21.92;;;6.60;61.50;;;;;;5077115;28;20055;-64
2023/03/03 04:13:34;;;;;;;40.00;23.15;;;6.60;61.40;;;;;;5073397;28;20094;-63
2023/03/03 04:16:03;;;;;;;42.83;23.92;;;6.60;61.30;;;;;;5083858;28;20031;-62
2023/03/03 04:18:28;;;;;;;45.88;23.52;;;6.60;61.40;;;;;;5087060;28;20111;-63
2023/03/03 04:20:54;;;;;;;43.70;24.08;;;6.60;61.10;;;;;;5074447;28;20060;-63
2023/03/03 04:23:20;;;;;;;38.80;22.02;;;6.60;61.30;;;;;;5081601;28;20029;-62
2023/03/03 04:25:47;;;;;;;52.40;23.42;;;6.60;61.40;;;;;;5084891;28;20043;-62
2023/03/03 04:28:14;;;;;;;52.92;25.17;;;6.60;61.50;;;;;;5083851;28;20058;-63
2023/03/03 04:30:40;;;;;;;48.65;23.98;;;6.60;61.60;;;;;;5078437;28;20024;-63
2023/03/03 04:33:06;;;;;;;44.13;23.48;;;6.60;61.60;;;;;;5078175;28;20483;-65
2023/03/03 04:35:31;;;;;;;41.80;22.70;;;6.60;61.60;;;;;;5088262;28;20072;-63
2023/03/03 04:37:57;;;;;;;43.65;23.10;;;6.60;61.70;;;;;;5080008;28;20072;-63
2023/03/03 04:40:23;;;;;;;42.88;22.73;;;6.60;61.60;;;;;;5075817;28;20112;-63
2023/03/03 04:42:49;;;;;;;40.63;22.40;;;6.60;61.60;;;;;;5090747;28;20059;-62
2023/03/03 04:45:15;;;;;;;45.83;23.00;;;6.60;61.60;;;;;;5090052;28;20024;-62
2023/03/03 04:47:41;;;;;;;39.90;22.25;;;6.60;61.60;;;;;;5083227;28;20037;-62
2023/03/03 04:50:08;;;;;;;45.72;22.45;;;6.60;61.80;;;;;;5072054;28;20107;-63
2023/03/03 04:52:33;;;;;;;42.00;22.25;;;6.60;61.60;;;;;;5080137;28;20020;-62
2023/03/03 04:54:59;;;;;;;46.28;24.73;;;6.60;61.60;;;;;;5090482;28;20064;-63
2023/03/03 04:57:25;;;;;;;48.00;24.05;;;6.60;61.70;;;;;;5086485;28;20040;-64
2023/03/03 04:59:51;;;;;;;45.55;24.02;;;6.60;61.80;;;;;;5075167;28;20043;-63
2023/03/03 05:02:17;;;;;;;49.42;25.48;;;6.60;61.80;;;;;;5079026;28;20035;-63
2023/03/03 05:04:43;;;;;;;46.58;23.58;;;6.70;61.70;;;;;;5081226;28;20100;-62
2023/03/03 05:07:09;;;;;;;42.20;22.98;;;6.70;61.70;;;;;;5070173;28;20115;-62
2023/03/03 05:09:35;;;;;;;45.63;24.75;;;6.70;61.50;;;;;;5083936;28;20033;-62
2023/03/03 05:12:00;;;;;;;48.55;25.75;;;6.70;62.20;;;;;;5070986;28;20025;-63
2023/03/03 05:14:27;;;;;;;43.53;24.20;;;6.70;61.50;;;;;;5067718;28;20115;-62
2023/03/03 05:16:53;;;;;;;49.75;25.85;;;6.70;61.40;;;;;;5079118;28;20459;-63
2023/03/03 05:19:18;;;;;;;49.97;25.08;;;6.70;61.30;;;;;;5078951;28;20031;-62
2023/03/03 05:21:44;;;;;;;47.00;24.83;;;6.70;61.30;;;;;;5084546;28;20029;-63
2023/03/03 05:24:13;;;;;;;52.10;25.55;;;6.70;61.30;;;;;;5079969;28;20081;-65
2023/03/03 05:26:40;;;;;;;52.25;26.48;;;6.70;61.40;;;;;;5073113;28;20035;-62
2023/03/03 05:29:06;;;;;;;50.58;26.40;;;6.70;61.30;;;;;;5078087;28;20036;-63
2023/03/03 05:31:32;;;;;;;52.20;26.27;;;6.70;61.40;;;;;;5086025;28;20378;-62
2023/03/03 05:33:58;;;;;;;47.67;25.75;;;6.70;61.30;;;;;;5084173;28;20029;-62
2023/03/03 05:36:24;;;;;;;52.45;26.92;;;6.70;61.30;;;;;;5087127;28;20115;-63
2023/03/03 05:38:50;;;;;;;55.05;27.67;;;6.70;61.30;;;;;;5084973;28;20052;-63
2023/03/03 05:41:15;;;;;;;57.17;29.92;;;6.70;61.20;;;;;;5072716;28;20040;-65
2023/03/03 05:43:41;;;;;;;52.60;28.85;;;6.70;61.20;;;;;;5071979;28;20044;-63
2023/03/03 05:46:07;;;;;;;50.20;27.00;;;6.70;61.30;;;;;;5079746;28;20017;-63
2023/03/03 05:48:33;;;;;;;51.22;27.35;;;6.70;61.30;;;;;;5085880;28;20042;-63
2023/03/03 05:50:59;;;;;;;60.08;26.17;;;6.70;61.50;;;;;;5082560;28;20025;-63
2023/03/03 05:53:26;;;;;;;47.00;25.75;;;6.80;61.50;;;;;;5085282;28;20056;-63
2023/03/03 05:55:52;;;;;;;48.85;26.90;;;6.80;61.50;;;;;;5080929;28;20028;-63
2023/03/03 05:58:18;;;;;;;47.13;25.33;;;6.80;61.40;;;;;;5083844;28;20031;-63
2023/03/03 06:00:43;;;;;;;53.03;25.40;;;6.80;61.40;;;;;;5076057;28;20025;-63
2023/03/03 06:03:09;;;;;;;50.85;26.38;;;6.80;61.40;;;;;;5082444;28;20048;-62
2023/03/03 06:05:35;;;;;;;52.20;26.33;;;6.80;61.40;;;;;;5089685;28;20103;-62
2023/03/03 06:08:00;;;;;;;46.03;25.23;;;6.80;61.50;;;;;;5079684;28;20096;-63
2023/03/03 06:10:26;;;;;;;45.75;25.23;;;6.80;61.50;;;;;;5079899;28;20523;-62
2023/03/03 06:12:52;;;;;;;46.28;25.48;;;6.80;61.50;;;;;;5084152;28;20036;-63
2023/03/03 06:15:18;;;;;;;49.22;27.70;;;6.80;61.40;;;;;;5081386;28;20025;-63
2023/03/03 06:17:43;;;;;;;59.05;27.42;;;6.80;61.40;;;;;;5082215;28;20056;-63
2023/03/03 06:20:10;;;;;;;58.67;29.52;;;6.80;61.30;;;;;;5069928;28;20036;-62
2023/03/03 06:22:35;;;;;;;51.75;26.38;;;6.70;61.20;;;;;;5084758;28;20031;-63
2023/03/03 06:25:01;;;;;;;46.03;26.55;;;6.70;61.70;;;;;;5071698;28;20087;-63
2023/03/03 06:27:27;;;;;;;55.47;27.27;;;6.70;61.10;;;;;;5090583;28;20033;-63
2023/03/03 06:29:52;;;;;;;56.63;27.55;;;6.70;61.20;;;;;;5076663;28;20048;-63
2023/03/03 06:32:18;;;;;;;52.50;27.17;;;6.70;61.30;;;;;;5070442;28;20043;-62
2023/03/03 06:34:44;;;;;;;53.55;27.90;;;6.70;61.40;;;;;;5078933;28;20051;-64
2023/03/03 06:37:09;;;;;;;51.90;26.55;;;6.70;61.40;;;;;;5074662;28;20028;-62
2023/03/03 06:39:35;;;;;;;56.97;27.40;;;6.70;61.40;;;;;;5084932;28;20029;-62
2023/03/03 06:42:01;;;;;;;61.38;27.77;;;6.80;61.40;;;;;;5084929;28;20025;-62
2023/03/03 06:44:26;;;;;;;53.58;27.58;;;6.80;61.50;;;;;;5076516;28;20037;-64
2023/03/03 06:46:52;;;;;;;48.25;24.98;;;6.80;61.60;;;;;;5081220;28;20652;-62
2023/03/03 06:49:18;;;;;;;52.25;26.92;;;6.80;61.60;;;;;;5077997;28;20033;-64
2023/03/03 06:51:45;;;;;;;55.70;28.20;;;6.80;61.40;;;;;;5085511;28;20028;-64
2023/03/03 06:54:16;;;;;;;44.70;26.27;;;6.90;61.50;;;;;;5074842;28;20024;-63
2023/03/03 06:56:43;;;;;;;49.35;27.52;;;6.90;61.40;;;;;;5099911;28;20024;-63
2023/03/03 06:59:20;;;;;;;51.63;24.95;;;6.90;61.30;;;;;;5074035;28;20020;-63
2023/03/03 07:01:48;;;;;;;50.95;26.08;;;6.90;61.70;;;;;;5082312;28;20106;-62
2023/03/03 07:04:32;;;;;;;51.67;26.45;;;6.90;61.50;;;;;;5080734;28;20141;-62
2023/03/03 07:07:04;;;;;;;45.42;20.50;;;7.00;62.00;;;;;;5081215;28;20068;-63
2023/03/03 07:09:30;;;;;;;48.20;25.73;;;7.00;61.60;;;;;;5082912;28;20062;-65
2023/03/03 07:12:04;;;;;;;49.97;26.80;;;7.00;61.50;;;;;;5062287;28;20020;-63
2023/03/03 07:14:30;;;;;;;52.30;27.92;;;7.00;61.60;;;;;;5075050;28;20032;-63
2023/03/03 07:17:00;;;;;;;56.55;29.30;;;7.10;61.60;;;;;;5091426;28;20036;-63
2023/03/03 07:19:33;;;;;;;52.45;27.27;;;7.10;61.60;;;;;;5071486;28;20104;-62
2023/03/03 07:22:12;;;;;;;54.00;27.95;;;7.10;61.60;;;;;;5074750;28;20028;-63
2023/03/03 07:24:39;;;;;;;52.30;28.40;;;7.10;61.30;;;;;;5069999;28;20059;-63
2023/03/03 07:27:05;;;;;;;61.90;28.48;;;7.20;61.10;;;;;;5075873;28;20467;-63
2023/03/03 07:29:34;;;;;;;52.20;27.80;;;7.10;61.00;;;;;;5077891;28;20043;-62
2023/03/03 07:32:01;;;;;;;56.92;28.05;;;7.10;61.20;;;;;;5071627;28;20395;-63
2023/03/03 07:34:42;;;;;;;47.80;26.67;;;7.20;61.10;;;;;;5086053;28;20033;-62
2023/03/03 07:37:17;;;;;;;52.50;27.42;;;7.10;61.10;;;;;;5079776;28;20707;-64
2023/03/03 07:39:46;;;;;;;60.97;28.85;;;7.10;61.20;;;;;;5077121;28;20102;-63
2023/03/03 07:42:15;;;;;;;54.35;27.65;;;7.20;61.10;;;;;;5083129;28;20029;-63
2023/03/03 07:44:41;;;;;;;55.63;29.05;;;7.20;61.10;;;;;;5073383;28;20029;-63
2023/03/03 07:47:16;;;;;;;55.42;28.88;;;7.20;61.00;;;;;;5083284;28;20028;-63
2023/03/03 07:49:42;;;;;;;125.25;61.65;;;7.20;61.40;;;;;;5073828;28;20475;-62
2023/03/03 07:52:50;;;;;;;92.10;47.42;;;7.30;61.30;;;;;;5079960;28;20100;-63
2023/03/03 07:55:35;;;;;;;155.55;73.05;;;7.30;61.70;;;;;;5066340;28;20090;-64
2023/03/03 07:58:11;;;;;;;247.80;121.50;;;7.30;61.70;;;;;;5074067;28;20029;-62
2023/03/03 08:01:02;;;;;;;192.98;94.35;;;7.40;61.50;;;;;;5113478;28;20021;-61
2023/03/03 08:03:27;;;;;;;127.50;65.95;;;7.40;61.40;;;;;;5074684;28;20124;-64
2023/03/03 08:05:53;;;;;;;102.95;51.72;;;7.40;61.00;;;;;;5085676;28;20036;-64
2023/03/03 08:08:31;;;;;;;68.63;37.35;;;7.40;61.10;;;;;;5084330;28;20032;-64
2023/03/03 08:10:59;;;;;;;63.72;33.22;;;7.50;61.20;;;;;;5069812;28;20024;-63
2023/03/03 08:13:40;;;;;;;89.10;44.63;;;7.50;60.80;;;;;;5084119;28;20497;-63
2023/03/03 08:16:08;;;;;;;74.30;35.72;;;7.50;61.00;;;;;;5075971;28;20027;-64
2023/03/03 08:18:39;;;;;;;75.30;37.88;;;7.60;60.90;;;;;;5081668;28;20029;-63
2023/03/03 08:21:16;;;;;;;59.15;31.98;;;7.60;60.90;;;;;;5072248;28;20108;-63
2023/03/03 08:23:42;;;;;;;105.20;54.67;;;7.60;61.20;;;;;;5073005;28;20075;-63
2023/03/03 08:26:08;;;;;;;140.93;71.97;;;7.60;61.10;;;;;;5079277;28;20036;-62
2023/03/03 08:28:34;;;;;;;76.68;41.50;;;7.70;61.20;;;;;;5083046;28;20648;-63
2023/03/03 08:30:59;;;;;;;71.22;40.50;;;7.80;61.10;;;;;;5073442;28;20024;-64
2023/03/03 08:33:25;;;;;;;63.95;34.38;;;7.80;61.00;;;;;;5077509;28;20437;-63
2023/03/03 08:35:52;;;;;;;56.22;31.20;;;7.90;61.00;;;;;;5080433;28;20042;-63
2023/03/03 08:38:19;;;;;;;58.80;31.48;;;7.90;61.10;;;;;;5080035;28;20041;-63
2023/03/03 08:40:47;;;;;;;63.25;32.60;;;8.00;61.00;;;;;;5084856;28;20020;-62
2023/03/03 08:43:16;;;;;;;61.08;32.03;;;8.10;60.90;;;;;;5086882;28;20079;-64
2023/03/03 08:45:43;;;;;;;71.90;37.53;;;8.10;60.80;;;;;;5088283;28;20028;-64
2023/03/03 08:48:11;;;;;;;67.10;36.20;;;8.20;60.80;;;;;;5077071;28;20068;-62
2023/03/03 08:50:37;;;;;;;56.60;32.08;;;8.30;60.90;;;;;;5082921;28;20024;-63
2023/03/03 08:53:03;;;;;;;60.15;32.50;;;8.40;60.80;;;;;;5085438;28;20055;-63
2023/03/03 08:55:29;;;;;;;59.28;31.60;;;8.40;60.60;;;;;;5077821;28;20538;-62
2023/03/03 08:57:55;;;;;;;69.90;36.25;;;8.50;60.50;;;;;;5085085;28;20028;-64
2023/03/03 09:00:21;;;;;;;64.50;33.40;;;8.60;60.20;;;;;;5082051;28;20020;-62
2023/03/03 09:02:49;;;;;;;72.82;38.00;;;8.70;60.00;;;;;;5070723;28;20120;-63
2023/03/03 09:05:16;;;;;;;77.45;37.25;;;8.70;59.90;;;;;;5088576;28;20633;-62
2023/03/03 09:07:44;;;;;;;76.95;39.53;;;8.80;59.80;;;;;;5080901;28;20063;-62
2023/03/03 09:10:13;;;;;;;66.03;36.70;;;8.80;59.70;;;;;;5083249;28;20103;-64
2023/03/03 09:12:42;;;;;;;54.47;31.95;;;8.90;59.70;;;;;;5082782;28;20029;-64
2023/03/03 09:15:32;;;;;;;54.10;31.15;;;9.00;59.30;;;;;;5079195;28;20079;-63
2023/03/03 09:18:21;;;;;;;56.40;31.20;;;9.00;59.10;;;;;;5084386;28;20039;-62
2023/03/03 09:20:52;;;;;;;52.75;27.98;;;9.00;58.60;;;;;;5080764;28;20020;-62
2023/03/03 09:23:41;;;;;;;55.25;29.40;;;9.00;58.50;;;;;;5080559;28;20107;-61
2023/03/03 09:26:10;;;;;;;50.90;28.13;;;9.00;58.60;;;;;;5087139;28;20017;-62
2023/03/03 09:28:36;;;;;;;54.38;29.70;;;9.10;58.50;;;;;;5080161;28;20039;-64
2023/03/03 09:31:04;;;;;;;56.90;29.63;;;9.10;58.40;;;;;;5078204;28;20036;-62
2023/03/03 09:33:44;;;;;;;55.67;29.10;;;9.10;58.20;;;;;;5084758;28;20035;-62
2023/03/03 09:36:37;;;;;;;55.40;28.58;;;9.20;58.00;;;;;;5082707;28;20028;-62
2023/03/03 09:39:19;;;;;;;48.05;27.05;;;9.20;58.10;;;;;;5083556;28;20097;-62
2023/03/03 09:42:23;;;;;;;56.30;26.83;;;9.30;57.70;;;;;;5083281;28;20028;-62
2023/03/03 09:44:59;;;;;;;45.78;25.77;;;9.40;57.00;;;;;;5081147;28;20041;-62
2023/03/03 09:48:03;;;;;;;51.17;27.00;;;9.40;57.20;;;;;;5080891;28;20129;-63
2023/03/03 09:51:07;;;;;;;62.08;30.92;;;9.50;56.90;;;;;;5053937;28;20042;-62
2023/03/03 09:53:56;;;;;;;50.38;27.25;;;9.50;57.30;;;;;;5058311;28;20060;-63
2023/03/03 09:56:57;;;;;;;49.30;26.35;;;9.50;57.10;;;;;;5063679;28;20461;-62
2023/03/03 09:59:40;;;;;;;50.10;26.38;;;9.60;57.50;;;;;;5042984;28;20129;-62
2023/03/03 10:02:26;;;;;;;54.38;27.52;;;9.60;56.90;;;;;;5039436;28;20053;-62
2023/03/03 10:05:11;;;;;;;52.88;29.15;;;9.70;56.60;;;;;;5036987;28;20025;-64
2023/03/03 10:07:47;;;;;;;59.17;28.45;;;9.70;56.20;;;;;;5037433;28;20041;-64
2023/03/03 10:10:29;;;;;;;55.63;28.50;;;9.70;56.00;;;;;;5035476;28;20037;-62
2023/03/03 10:13:06;;;;;;;51.90;25.33;;;9.60;56.20;;;;;;5039131;28;20031;-63
2023/03/03 10:15:46;;;;;;;49.95;27.38;;;9.60;56.20;;;;;;5035966;28;20056;-63
2023/03/03 10:18:32;;;;;;;53.75;26.55;;;9.60;56.60;;;;;;5039632;28;20092;-64
2023/03/03 10:21:38;;;;;;;54.20;26.88;;;9.70;56.40;;;;;;5042862;28;20048;-63
2023/03/03 10:24:25;;;;;;;45.08;24.70;;;9.70;56.20;;;;;;5036271;28;20032;-62
2023/03/03 10:27:06;;;;;;;61.17;25.88;;;9.80;56.30;;;;;;5055503;28;20471;-64
2023/03/03 10:29:40;;;;;;;46.90;25.98;;;9.90;56.10;;;;;;5054843;28;20071;-64
2023/03/03 10:32:33;;;;;;;53.63;26.70;;;9.90;55.80;;;;;;5055739;28;20036;-64
2023/03/03 10:35:18;;;;;;;56.05;24.45;;;9.90;55.40;;;;;;5080460;28;20111;-63
2023/03/03 10:38:06;;;;;;;52.42;24.23;;;9.90;55.20;;;;;;5080786;28;20056;-63
2023/03/03 10:40:48;;;;;;;43.75;24.80;;;9.90;55.20;;;;;;5071015;28;20348;-62
2023/03/03 10:43:34;;;;;;;48.47;24.33;;;9.90;55.00;;;;;;5080081;28;20537;-62
2023/03/03 10:46:34;;;;;;;48.58;24.45;;;10.00;55.30;;;;;;5083427;28;20024;-63
2023/03/03 10:49:32;;;;;;;44.13;25.15;;;10.00;55.20;;;;;;5071182;28;20039;-63
2023/03/03 10:52:21;;;;;;;42.63;24.77;;;10.00;55.00;;;;;;5081565;28;20068;-63
2023/03/03 10:54:49;;;;;;;43.38;24.50;;;10.10;54.50;;;;;;5079600;28;20024;-64
2023/03/03 10:57:41;;;;;;;45.83;24.98;;;10.10;55.10;;;;;;5086330;28;20024;-62
2023/03/03 11:00:34;;;;;;;48.78;23.90;;;10.10;55.10;;;;;;5080337;28;20703;-65
2023/03/03 11:03:42;;;;;;;50.67;25.40;;;10.10;54.20;;;;;;5088370;28;20059;-64
2023/03/03 11:06:25;;;;;;;55.63;24.60;;;10.20;54.50;;;;;;5075094;28;20023;-64
2023/03/03 11:08:55;;;;;;;43.55;23.70;;;10.20;54.70;;;;;;5072458;28;20067;-63
2023/03/03 11:11:46;;;;;;;51.08;25.67;;;10.30;54.90;;;;;;5077161;28;20074;-63
2023/03/03 11:14:39;;;;;;;41.38;24.13;;;10.30;54.70;;;;;;5078080;28;20259;-64
2023/03/03 11:17:28;;;;;;;48.88;23.33;;;10.40;54.80;;;;;;5080902;28;20050;-62
2023/03/03 11:19:57;;;;;;;40.63;23.52;;;10.40;54.70;;;;;;5070507;28;20028;-64
2023/03/03 11:22:41;;;;;;;39.13;23.15;;;10.40;54.50;;;;;;5084878;28;20058;-63
2023/03/03 11:25:09;;;;;;;43.70;24.20;;;10.50;54.20;;;;;;5077089;28;20023;-62
2023/03/03 11:27:59;;;;;;;46.05;25.35;;;10.50;54.30;;;;;;5080674;28;20036;-62
2023/03/03 11:30:40;;;;;;;39.03;22.70;;;10.50;53.70;;;;;;5071400;28;20170;-61
2023/03/03 11:33:13;;;;;;;53.25;25.02;;;10.50;53.70;;;;;;5079355;28;20028;-63
2023/03/03 11:36:10;;;;;;;43.30;24.23;;;10.60;53.80;;;;;;5079637;28;20039;-62
2023/03/03 11:38:56;;;;;;;40.20;23.02;;;10.60;53.40;;;;;;5083123;28;20036;-63
2023/03/03 11:41:42;;;;;;;39.08;23.50;;;10.60;53.60;;;;;;5080384;28;20063;-63
2023/03/03 11:44:41;;;;;;;38.75;23.30;;;10.70;53.30;;;;;;5086077;28;20033;-62
2023/03/03 11:47:23;;;;;;;44.17;22.23;;;10.80;53.50;;;;;;5081839;28;20045;-63
2023/03/03 11:50:15;;;;;;;39.75;22.33;;;10.80;53.60;;;;;;5070726;28;20029;-62
2023/03/03 11:52:54;;;;;;;42.13;23.15;;;10.80;53.20;;;;;;5079452;28;20081;-63
2023/03/03 11:55:38;;;;;;;38.30;21.90;;;10.90;53.40;;;;;;5073397;28;20028;-62
2023/03/03 11:58:16;;;;;;;48.13;23.77;;;11.00;53.50;;;;;;5082386;28;20013;-62
2023/03/03 12:00:59;;;;;;;40.17;22.65;;;11.10;53.30;;;;;;5073722;28;20033;-62
2023/03/03 12:03:40;;;;;;;44.67;21.77;;;11.30;53.10;;;;;;5074480;28;20025;-62
2023/03/03 12:06:06;;;;;;;42.28;22.20;;;11.40;52.80;;;;;;5073093;28;20070;-64
2023/03/03 12:09:06;;;;;;;39.53;22.80;;;11.50;53.10;;;;;;5082082;28;20044;-63
2023/03/03 12:12:00;;;;;;;37.67;21.50;;;11.60;53.10;;;;;;5080733;28;20092;-62
2023/03/03 12:15:20;;;;;;;41.28;20.48;;;11.70;52.20;;;;;;5070464;28;21188;-63
2023/03/03 12:18:08;;;;;;;35.13;20.45;;;11.80;52.30;;;;;;5058544;28;20072;-62
2023/03/03 12:20:43;;;;;;;36.08;21.45;;;12.00;52.00;;;;;;5063968;28;20040;-62
2023/03/03 12:23:22;;;;;;;45.65;23.00;;;12.00;52.40;;;;;;5054152;28;20029;-64
2023/03/03 12:26:00;;;;;;;40.88;21.65;;;12.20;51.70;;;;;;5048313;28;20151;-64
2023/03/03 12:28:37;;;;;;;36.80;20.80;;;12.20;50.30;;;;;;5059823;28;20036;-63
2023/03/03 12:31:27;;;;;;;38.47;22.38;;;12.20;50.40;;;;;;5062870;28;20042;-64
2023/03/03 12:34:25;;;;;;;32.38;20.65;;;12.20;50.50;;;;;;5058784;28;20182;-64
2023/03/03 12:37:05;;;;;;;41.95;21.30;;;12.20;51.10;;;;;;5033798;28;20041;-64
2023/03/03 12:40:02;;;;;;;34.47;20.80;;;12.20;51.20;;;;;;5058861;28;20057;-63
2023/03/03 12:42:59;;;;;;;36.42;21.45;;;12.30;51.30;;;;;;5059244;28;20033;-63
2023/03/03 12:45:42;;;;;;;36.15;21.98;;;12.40;51.10;;;;;;5052413;28;20041;-63
2023/03/03 12:48:22;;;;;;;42.92;22.85;;;12.60;51.60;;;;;;5058753;28;20056;-63
2023/03/03 12:51:11;;;;;;;37.03;21.75;;;12.80;51.70;;;;;;5061398;28;20032;-63
2023/03/03 12:53:43;;;;;;;37.25;22.05;;;13.00;51.20;;;;;;5086679;28;20025;-63
2023/03/03 12:56:12;;;;;;;41.28;22.02;;;13.20;51.70;;;;;;5066034;28;20021;-63
2023/03/03 12:58:46;;;;;;;33.75;21.20;;;13.40;51.20;;;;;;5084826;28;20027;-63
2023/03/03 13:01:29;;;;;;;;;;;13.60;50.80;;;;;;5072925;28;20029;-63
2023/03/03 13:04:28;;;;;;;41.67;20.95;;;13.70;51.10;;;;;;5072861;28;19915;-63